Enid, OK (73701)

11:41 AM CST on December 05, 2016 (GMT -0600)
Beverly Drive | | Change Station

Elev 1271 ft 36.38 °N, 97.90 °W | Updated 37 seconds ago

Partly Cloudy
Partly Cloudy
50.9 °F
Feels Like 50.9 °F
N
8.0
Wind Variable Wind from SE

Today
High -- | Low -- °F
--% Chance of Precip.
Yesterday
High -- | Low -- °F
Precip. -- in
Pressure 29.83 in
Visibility -9999.0 miles
Clouds Few 20000 ft
Dew Point 41 °F
Humidity 70%
Rainfall 0.00 in
Snow Depth Not available.
7:28 AM 5:16 PM
Waxing Crescent, 33% visible
METAR KWDG 051658Z 16006KT 10 SM FEW200 08/08 A2983
Pressure 29.83 in
Visibility -9999.0 miles
Clouds Few 20000 ft
Dew Point 41 °F
Humidity 70%
Rainfall 0.00 in
Snow Depth Not available.
7:28 AM 5:16 PM
Waxing Crescent, 33% visible
METAR KWDG 051658Z 16006KT 10 SM FEW200 08/08 A2983

10-Day Weather Forecast

Almanac

Astronomy

Dec. 05, 2016 Rise Set
Actual Time
Civil Twilight
Nautical Twilight
Astronomical Twilight
Moon
Length of Visible Light
Length of Day
Tomorrow will be .
, % of the Moon is Illuminated

Today's Extremes

State Highs State Lows

Community

WunderPhotos

Upload Photos

1,955,845 photos uploaded!

WunderBlog® & News

Nearby

Air Quality

  Air Quality AQ Index Pollutant
Not available.

Snow Depth

Station Depth Elevation

Earthquake Activity

City Distance Mag. Time & Date
Minimum magnitude displayed is 2.5.

Coastal Water Temperatures

Place Temperature

Stations

Nearby Weather Stations

Station Location Temp. Windchill Dew Point Humidity Wind Precip. Elev Updated Type
                   

Watches & Warnings

There are currently no watches in effect.